sensor_id;sensor_type;location;lat;lon;timestamp;P1;durP1;ratioP1;P2;durP2;ratioP2
9108;SDS011;4590;51.462;6.692;2023-05-14T00:13:20;7.32;;;5.88;;
9108;SDS011;4590;51.462;6.692;2023-05-14T01:22:13;8.02;;;6.68;;
9108;SDS011;4590;51.462;6.692;2023-05-14T01:53:11;8.57;;;7.38;;
9108;SDS011;4590;51.462;6.692;2023-05-14T01:55:37;8.18;;;7.00;;
9108;SDS011;4590;51.462;6.692;2023-05-14T02:00:39;8.55;;;6.85;;
9108;SDS011;4590;51.462;6.692;2023-05-14T02:03:04;8.77;;;7.40;;
9108;SDS011;4590;51.462;6.692;2023-05-14T02:08:33;10.68;;;8.05;;
9108;SDS011;4590;51.462;6.692;2023-05-14T02:13:35;11.27;;;7.40;;
9108;SDS011;4590;51.462;6.692;2023-05-14T02:18:43;7.80;;;7.00;;
9108;SDS011;4590;51.462;6.692;2023-05-14T02:21:09;7.05;;;6.35;;
9108;SDS011;4590;51.462;6.692;2023-05-14T02:23:34;8.55;;;7.55;;
9108;SDS011;4590;51.462;6.692;2023-05-14T02:26:00;12.20;;;7.32;;
9108;SDS011;4590;51.462;6.692;2023-05-14T02:28:42;9.68;;;7.47;;
9108;SDS011;4590;51.462;6.692;2023-05-14T02:31:07;8.57;;;7.53;;
9108;SDS011;4590;51.462;6.692;2023-05-14T02:33:33;8.65;;;6.97;;
9108;SDS011;4590;51.462;6.692;2023-05-14T02:35:58;8.33;;;7.20;;
9108;SDS011;4590;51.462;6.692;2023-05-14T02:38:24;8.77;;;7.75;;
9108;SDS011;4590;51.462;6.692;2023-05-14T02:40:50;11.20;;;7.85;;
9108;SDS011;4590;51.462;6.692;2023-05-14T02:43:16;8.38;;;7.40;;
9108;SDS011;4590;51.462;6.692;2023-05-14T02:45:41;9.93;;;7.70;;
9108;SDS011;4590;51.462;6.692;2023-05-14T02:48:07;9.30;;;7.85;;
9108;SDS011;4590;51.462;6.692;2023-05-14T02:50:36;9.27;;;8.30;;
9108;SDS011;4590;51.462;6.692;2023-05-14T02:53:01;11.45;;;7.85;;
9108;SDS011;4590;51.462;6.692;2023-05-14T02:55:27;10.00;;;8.00;;
9108;SDS011;4590;51.462;6.692;2023-05-14T02:57:53;10.20;;;8.27;;
9108;SDS011;4590;51.462;6.692;2023-05-14T03:00:21;10.52;;;8.13;;
9108;SDS011;4590;51.462;6.692;2023-05-14T03:02:47;12.00;;;8.98;;
9108;SDS011;4590;51.462;6.692;2023-05-14T03:05:12;9.68;;;8.45;;
9108;SDS011;4590;51.462;6.692;2023-05-14T03:07:38;9.57;;;8.32;;
9108;SDS011;4590;51.462;6.692;2023-05-14T03:10:04;10.27;;;8.03;;
9108;SDS011;4590;51.462;6.692;2023-05-14T03:14:55;9.18;;;7.53;;
9108;SDS011;4590;51.462;6.692;2023-05-14T03:17:21;9.25;;;7.68;;
9108;SDS011;4590;51.462;6.692;2023-05-14T03:19:46;8.85;;;7.95;;
9108;SDS011;4590;51.462;6.692;2023-05-14T03:22:12;10.10;;;7.90;;
9108;SDS011;4590;51.462;6.692;2023-05-14T03:24:38;9.80;;;8.80;;
9108;SDS011;4590;51.462;6.692;2023-05-14T03:27:04;10.43;;;8.77;;
9108;SDS011;4590;51.462;6.692;2023-05-14T03:29:30;10.50;;;8.88;;
9108;SDS011;4590;51.462;6.692;2023-05-14T03:31:56;9.80;;;8.00;;
9108;SDS011;4590;51.462;6.692;2023-05-14T03:36:57;9.57;;;8.13;;
9108;SDS011;4590;51.462;6.692;2023-05-14T03:39:22;11.95;;;7.93;;
9108;SDS011;4590;51.462;6.692;2023-05-14T04:06:30;13.02;;;8.05;;
9108;SDS011;4590;51.462;6.692;2023-05-14T04:11:32;9.40;;;8.07;;
9108;SDS011;4590;51.462;6.692;2023-05-14T04:19:01;10.48;;;8.32;;
9108;SDS011;4590;51.462;6.692;2023-05-14T04:21:30;11.35;;;8.25;;
9108;SDS011;4590;51.462;6.692;2023-05-14T05:26:53;10.48;;;8.07;;
9108;SDS011;4590;51.462;6.692;2023-05-14T05:29:28;9.32;;;8.32;;
9108;SDS011;4590;51.462;6.692;2023-05-14T05:34:30;10.07;;;8.13;;
9108;SDS011;4590;51.462;6.692;2023-05-14T11:38:20;3.00;;;1.80;;
9108;SDS011;4590;51.462;6.692;2023-05-14T11:40:55;14.57;;;6.20;;
9108;SDS011;4590;51.462;6.692;2023-05-14T11:43:23;5.47;;;2.67;;
9108;SDS011;4590;51.462;6.692;2023-05-14T12:56:23;5.10;;;1.85;;
9108;SDS011;4590;51.462;6.692;2023-05-14T12:58:52;3.28;;;1.80;;
9108;SDS011;4590;51.462;6.692;2023-05-14T13:01:23;2.13;;;1.70;;
9108;SDS011;4590;51.462;6.692;2023-05-14T13:03:48;2.85;;;1.77;;
9108;SDS011;4590;51.462;6.692;2023-05-14T13:06:15;3.47;;;1.80;;
9108;SDS011;4590;51.462;6.692;2023-05-14T13:08:40;3.17;;;1.63;;
9108;SDS011;4590;51.462;6.692;2023-05-14T13:11:06;3.10;;;1.70;;
